createdAt,value
2023-06-03T00:00:53.549Z,3687.00
2023-06-03T00:01:53.589Z,4059.00
2023-06-03T00:02:53.660Z,5010.00
2023-06-03T00:03:53.702Z,4884.00
2023-06-03T00:04:53.741Z,4271.00
2023-06-03T00:05:53.655Z,3909.00
2023-06-03T00:06:53.746Z,3770.00
2023-06-03T00:07:53.750Z,3467.00
2023-06-03T00:08:53.766Z,3426.00
2023-06-03T00:09:53.774Z,3624.00
2023-06-03T00:10:53.802Z,3483.00
2023-06-03T00:11:53.799Z,3591.00
2023-06-03T00:12:53.847Z,3429.00
2023-06-03T00:13:53.876Z,3536.00
2023-06-03T00:14:53.896Z,3728.00
2023-06-03T00:15:53.896Z,3365.00
2023-06-03T00:16:54.156Z,3301.00
2023-06-03T00:17:53.994Z,3158.00
2023-06-03T00:18:53.959Z,3161.00
2023-06-03T00:19:53.995Z,3518.00
2023-06-03T00:20:54.044Z,4130.00
2023-06-03T00:21:54.052Z,4196.00
2023-06-03T00:22:54.012Z,3888.00
2023-06-03T00:23:54.081Z,4258.00
2023-06-03T00:24:54.100Z,3867.00
2023-06-03T00:25:54.136Z,3613.00
2023-06-03T00:26:54.227Z,3741.00
2023-06-03T00:27:54.190Z,3356.00
2023-06-03T00:28:54.260Z,3149.00
2023-06-03T00:29:54.231Z,3039.00
2023-06-03T00:30:54.244Z,2978.00
2023-06-03T00:31:54.345Z,3823.00
2023-06-03T00:32:54.347Z,3688.00
2023-06-03T00:33:54.435Z,3640.00
2023-06-03T00:34:54.424Z,3217.00
2023-06-03T00:35:54.449Z,3042.00
2023-06-03T00:36:54.454Z,2997.00
2023-06-03T00:37:54.466Z,3697.00
2023-06-03T00:38:54.524Z,3859.00
2023-06-03T00:39:54.500Z,3846.00
2023-06-03T00:40:54.589Z,3080.00
2023-06-03T00:41:54.589Z,3740.00
2023-06-03T00:42:54.605Z,3311.00
2023-06-03T00:43:54.645Z,3210.00
2023-06-03T00:44:54.712Z,3797.00
2023-06-03T00:45:54.785Z,3740.00
2023-06-03T00:46:54.720Z,3803.00
2023-06-03T00:47:54.835Z,4242.00
2023-06-03T00:48:54.779Z,3780.00
2023-06-03T00:49:54.811Z,3627.00
2023-06-03T00:50:54.820Z,3718.00
2023-06-03T00:51:54.867Z,3843.00
2023-06-03T00:52:54.795Z,4098.00
2023-06-03T00:53:54.837Z,4203.00
2023-06-03T00:54:54.834Z,4455.00
2023-06-03T00:55:54.906Z,4369.00
2023-06-03T00:56:54.860Z,4603.00
2023-06-03T00:57:54.866Z,4889.00
2023-06-03T00:58:54.865Z,4503.00
2023-06-03T00:59:54.932Z,4275.00
2023-06-03T01:00:54.989Z,4097.00
2023-06-03T01:01:55.023Z,3991.00
2023-06-03T01:02:55.073Z,4387.00
2023-06-03T01:03:54.999Z,4188.00
2023-06-03T01:04:55.062Z,4415.00
2023-06-03T01:05:55.060Z,4390.00
2023-06-03T01:06:55.068Z,4454.00
2023-06-03T01:07:55.064Z,3847.00
2023-06-03T01:08:55.079Z,3725.00
2023-06-03T01:09:55.139Z,4161.00
2023-06-03T01:10:55.149Z,3989.00
2023-06-03T01:11:55.266Z,4304.00
2023-06-03T01:12:55.222Z,4511.00
2023-06-03T01:13:55.216Z,4584.00
2023-06-03T01:14:55.270Z,4357.00
2023-06-03T01:15:55.265Z,3814.00
2023-06-03T01:16:55.235Z,4135.00
2023-06-03T01:17:55.260Z,3826.00
2023-06-03T01:18:55.293Z,3343.00
2023-06-03T01:19:55.307Z,4328.00
2023-06-03T01:20:55.378Z,3962.00
2023-06-03T01:21:55.420Z,3762.00
2023-06-03T01:22:55.404Z,3776.00
2023-06-03T01:23:55.542Z,3982.00
2023-06-03T01:24:55.499Z,3887.00
2023-06-03T01:25:55.498Z,4069.00
2023-06-03T01:26:55.612Z,4364.00
2023-06-03T01:27:55.565Z,4241.00
2023-06-03T01:28:55.626Z,3828.00
2023-06-03T01:29:55.635Z,4067.00
2023-06-03T01:30:55.724Z,3654.00
2023-06-03T01:31:55.698Z,3355.00
2023-06-03T01:32:55.745Z,3357.00
2023-06-03T01:33:55.724Z,3224.00
2023-06-03T01:34:55.722Z,3725.00
2023-06-03T01:35:55.808Z,4056.00
2023-06-03T01:36:55.884Z,3798.00
2023-06-03T01:37:55.839Z,4553.00
2023-06-03T01:38:55.904Z,4884.00
2023-06-03T01:39:55.957Z,4375.00
2023-06-03T01:40:56.023Z,4332.00
2023-06-03T01:41:56.031Z,4011.00
2023-06-03T01:42:56.035Z,3929.00
2023-06-03T01:43:56.049Z,3926.00
2023-06-03T01:44:56.047Z,4099.00
2023-06-03T01:45:56.104Z,4224.00
2023-06-03T01:46:56.141Z,4261.00
2023-06-03T01:47:56.147Z,4343.00
2023-06-03T01:48:56.106Z,4802.00
2023-06-03T01:49:56.192Z,5254.00
2023-06-03T01:50:56.183Z,5061.00
2023-06-03T01:51:56.235Z,4525.00
2023-06-03T01:52:56.250Z,4216.00
2023-06-03T01:53:56.247Z,3734.00
2023-06-03T01:54:56.268Z,4315.00
2023-06-03T01:55:56.255Z,4427.00
2023-06-03T01:56:56.332Z,4504.00
2023-06-03T01:57:56.349Z,4836.00
2023-06-03T01:58:56.341Z,4494.00
2023-06-03T01:59:56.394Z,4646.00
2023-06-03T02:00:56.433Z,4338.00
2023-06-03T02:01:56.520Z,4204.00
2023-06-03T02:02:56.510Z,3903.00
2023-06-03T02:03:56.490Z,3813.00
2023-06-03T02:04:56.529Z,3864.00
2023-06-03T02:05:56.543Z,3786.00
2023-06-03T02:06:56.605Z,4263.00
2023-06-03T02:07:56.594Z,3954.00
2023-06-03T02:08:56.606Z,3820.00
2023-06-03T02:09:56.631Z,4277.00
2023-06-03T02:10:56.641Z,4381.00
2023-06-03T02:11:56.698Z,4061.00
2023-06-03T02:12:56.691Z,3720.00
2023-06-03T02:13:56.714Z,4038.00
2023-06-03T02:14:56.760Z,3984.00
2023-06-03T02:15:56.765Z,4148.00
2023-06-03T02:16:56.998Z,4027.00
2023-06-03T02:17:56.911Z,3858.00
2023-06-03T02:18:56.843Z,3566.00
2023-06-03T02:19:56.841Z,3477.00
2023-06-03T02:20:56.907Z,4150.00
2023-06-03T02:21:56.972Z,3552.00
2023-06-03T02:22:56.975Z,3160.00
2023-06-03T02:23:57.169Z,3183.00
2023-06-03T02:24:57.029Z,3442.00
2023-06-03T02:25:57.064Z,3451.00
2023-06-03T02:26:57.103Z,3908.00
2023-06-03T02:27:57.164Z,3790.00
2023-06-03T02:28:57.181Z,4148.00
2023-06-03T02:29:57.216Z,4532.00
2023-06-03T02:30:57.227Z,4888.00
2023-06-03T02:31:57.375Z,5059.00
2023-06-03T02:32:57.305Z,4743.00
2023-06-03T02:33:57.301Z,4528.00
2023-06-03T02:34:57.345Z,4357.00
2023-06-03T02:35:57.375Z,4416.00
2023-06-03T02:36:57.432Z,4310.00
2023-06-03T02:37:57.480Z,4652.00
2023-06-03T02:38:57.543Z,4330.00
2023-06-03T02:39:57.544Z,4439.00
2023-06-03T02:40:57.549Z,4595.00
2023-06-03T02:41:57.577Z,4338.00
2023-06-03T02:42:57.592Z,4281.00
2023-06-03T02:43:57.628Z,4093.00
2023-06-03T02:44:57.695Z,3907.00
2023-06-03T02:45:57.756Z,3756.00
2023-06-03T02:46:57.754Z,3856.00
2023-06-03T02:47:57.866Z,4169.00
2023-06-03T02:48:57.803Z,4527.00
2023-06-03T02:49:57.829Z,4357.00
2023-06-03T02:50:57.874Z,4117.00
2023-06-03T02:51:57.881Z,3997.00
2023-06-03T02:52:57.889Z,4026.00
2023-06-03T02:53:57.904Z,4050.00
2023-06-03T02:54:57.910Z,4328.00
2023-06-03T02:55:57.909Z,4314.00
2023-06-03T02:56:57.969Z,4515.00
2023-06-03T02:57:57.985Z,4346.00
2023-06-03T02:58:58.043Z,4053.00
2023-06-03T02:59:58.043Z,4134.00
2023-06-03T03:00:58.037Z,4076.00
2023-06-03T03:01:58.133Z,3981.00
2023-06-03T03:02:58.208Z,3962.00
2023-06-03T03:03:58.203Z,3909.00
2023-06-03T03:04:58.160Z,4308.00
2023-06-03T03:05:58.172Z,4404.00
2023-06-03T03:06:58.237Z,4518.00
2023-06-03T03:07:58.292Z,4309.00
2023-06-03T03:08:58.449Z,4326.00
2023-06-03T03:09:58.377Z,4410.00
2023-06-03T03:10:58.393Z,4268.00
2023-06-03T03:11:58.500Z,4238.00
2023-06-03T03:12:58.433Z,3999.00
2023-06-03T03:13:58.478Z,4216.00
2023-06-03T03:14:58.475Z,4293.00
2023-06-03T03:15:58.551Z,4162.00
2023-06-03T03:16:58.565Z,4101.00
2023-06-03T03:17:58.613Z,4210.00
2023-06-03T03:18:58.589Z,4135.00
2023-06-03T03:19:58.590Z,4186.00
2023-06-03T03:20:58.585Z,4385.00
2023-06-03T03:21:58.646Z,4250.00
2023-06-03T03:22:58.656Z,4049.00
2023-06-03T03:23:58.749Z,4077.00
2023-06-03T03:24:58.694Z,4411.00
2023-06-03T03:25:58.831Z,4415.00
2023-06-03T03:26:58.814Z,4335.00
2023-06-03T03:27:58.804Z,4310.00
2023-06-03T03:28:58.821Z,4139.00
2023-06-03T03:29:58.812Z,4100.00
2023-06-03T03:30:58.868Z,4069.00
2023-06-03T03:31:58.933Z,4047.00
2023-06-03T03:32:58.968Z,4009.00
2023-06-03T03:33:58.989Z,3996.00
2023-06-03T03:34:59.047Z,4153.00
2023-06-03T03:35:58.987Z,4005.00
2023-06-03T03:36:59.064Z,4219.00
2023-06-03T03:37:59.057Z,4578.00
2023-06-03T03:38:59.072Z,4848.00
2023-06-03T03:39:59.081Z,4824.00
2023-06-03T03:40:59.083Z,4735.00
2023-06-03T03:41:59.145Z,4848.00
2023-06-03T03:42:59.176Z,4981.00
2023-06-03T03:43:59.221Z,4553.00
2023-06-03T03:44:59.221Z,4927.00
2023-06-03T03:45:59.264Z,5001.00
2023-06-03T03:46:59.258Z,5077.00
2023-06-03T03:47:59.296Z,4567.00
2023-06-03T03:48:59.277Z,4970.00
2023-06-03T03:49:59.368Z,5112.00
2023-06-03T03:50:59.400Z,4942.00
2023-06-03T03:51:59.406Z,4975.00
2023-06-03T03:52:59.371Z,4780.00
2023-06-03T03:53:59.374Z,4823.00
2023-06-03T03:54:59.387Z,4788.00
2023-06-03T03:55:59.437Z,5005.00
2023-06-03T03:56:59.450Z,4448.00
2023-06-03T03:57:59.474Z,4176.00
2023-06-03T03:58:59.521Z,4231.00
2023-06-03T03:59:59.561Z,4314.00
2023-06-03T04:00:59.632Z,4118.00
2023-06-03T04:01:59.665Z,4562.00
2023-06-03T04:02:59.705Z,4304.00
2023-06-03T04:03:59.750Z,4208.00
2023-06-03T04:04:59.769Z,4138.00
2023-06-03T04:05:59.774Z,4510.00
2023-06-03T04:06:59.789Z,4143.00
2023-06-03T04:07:59.832Z,4216.00
2023-06-03T04:08:59.824Z,4292.00
2023-06-03T04:09:59.864Z,4177.00
2023-06-03T04:10:59.951Z,4371.00
2023-06-03T04:12:00.008Z,4488.00
2023-06-03T04:13:00.034Z,4427.00
2023-06-03T04:14:00.098Z,4434.00
2023-06-03T04:15:00.163Z,4836.00
2023-06-03T04:16:00.168Z,5352.00
2023-06-03T04:17:00.179Z,5138.00
2023-06-03T04:18:00.269Z,5114.00
2023-06-03T04:19:00.234Z,5170.00
2023-06-03T04:20:00.307Z,5068.00
2023-06-03T04:21:00.320Z,5220.00
2023-06-03T04:22:00.339Z,5084.00
2023-06-03T04:23:00.324Z,5375.00
2023-06-03T04:24:00.522Z,5431.00
2023-06-03T04:25:00.463Z,5285.00
2023-06-03T04:26:00.468Z,5124.00
2023-06-03T04:27:00.545Z,4846.00
2023-06-03T04:28:00.494Z,4829.00
2023-06-03T04:29:00.542Z,4821.00
2023-06-03T04:30:00.580Z,4777.00
2023-06-03T04:31:00.590Z,4738.00
2023-06-03T04:32:00.741Z,4746.00
2023-06-03T04:33:00.703Z,4749.00
2023-06-03T04:34:00.731Z,4801.00
2023-06-03T04:35:00.771Z,4713.00
2023-06-03T04:36:00.850Z,4612.00
2023-06-03T04:37:00.840Z,4465.00
2023-06-03T04:38:00.869Z,4432.00
2023-06-03T04:39:00.910Z,4554.00
2023-06-03T04:40:00.906Z,4918.00
2023-06-03T04:41:00.950Z,5188.00
2023-06-03T04:42:00.996Z,5213.00
2023-06-03T04:43:00.985Z,5035.00
2023-06-03T04:44:01.015Z,5121.00
2023-06-03T04:45:01.031Z,4855.00
2023-06-03T04:46:01.036Z,4669.00
2023-06-03T04:47:01.226Z,4570.00
2023-06-03T04:48:01.163Z,4483.00
2023-06-03T04:49:01.112Z,4603.00
2023-06-03T04:50:01.170Z,4696.00
2023-06-03T04:51:01.175Z,4934.00
2023-06-03T04:52:01.197Z,4902.00
2023-06-03T04:53:01.256Z,5038.00
2023-06-03T04:54:01.278Z,4540.00
2023-06-03T04:55:01.302Z,4758.00
2023-06-03T04:56:01.341Z,4617.00
2023-06-03T04:57:01.374Z,4329.00
2023-06-03T04:58:01.366Z,4730.00
2023-06-03T04:59:01.400Z,4650.00
2023-06-03T05:00:01.428Z,4275.00
2023-06-03T05:01:01.434Z,4010.00
2023-06-03T05:02:01.541Z,3897.00
2023-06-03T05:03:01.562Z,3911.00
2023-06-03T05:04:01.610Z,4006.00
2023-06-03T05:05:01.535Z,3818.00
2023-06-03T05:06:01.543Z,3750.00
2023-06-03T05:07:01.591Z,4143.00
2023-06-03T05:08:01.619Z,3855.00
2023-06-03T05:09:01.683Z,4081.00
2023-06-03T05:10:01.655Z,3987.00
2023-06-03T05:11:01.720Z,4193.00
2023-06-03T05:12:01.703Z,3946.00
2023-06-03T05:13:01.711Z,3981.00
2023-06-03T05:14:01.799Z,4212.00
2023-06-03T05:15:01.837Z,4173.00
2023-06-03T05:16:01.874Z,4274.00
2023-06-03T05:17:01.953Z,4298.00
2023-06-03T05:18:01.930Z,4281.00
2023-06-03T05:19:02.672Z,4023.00
2023-06-03T05:20:01.926Z,4268.00
2023-06-03T05:21:01.957Z,4028.00
2023-06-03T05:22:01.989Z,3937.00
2023-06-03T05:23:02.007Z,3734.00
2023-06-03T05:24:02.080Z,3996.00
2023-06-03T05:25:02.480Z,4146.00
2023-06-03T05:26:02.020Z,4069.00
2023-06-03T05:27:02.219Z,3825.00
2023-06-03T05:28:04.539Z,3814.00
2023-06-03T05:29:02.115Z,3839.00
2023-06-03T05:30:02.099Z,3685.00
2023-06-03T05:31:02.118Z,3754.00
2023-06-03T05:32:02.154Z,4182.00
2023-06-03T05:33:02.212Z,4005.00
2023-06-03T05:34:02.084Z,4289.00
2023-06-03T05:35:02.093Z,4140.00
2023-06-03T05:36:02.048Z,4243.00
2023-06-03T05:37:02.049Z,4060.00
2023-06-03T05:38:02.059Z,4099.00
2023-06-03T05:39:02.063Z,3994.00
2023-06-03T05:40:02.079Z,4079.00
2023-06-03T05:41:02.010Z,4101.00
2023-06-03T05:42:02.000Z,4071.00
2023-06-03T05:43:01.997Z,4305.00
2023-06-03T05:44:01.985Z,4327.00
2023-06-03T05:45:02.002Z,4518.00
2023-06-03T05:46:02.078Z,4297.00
2023-06-03T05:47:01.940Z,4104.00
2023-06-03T05:48:02.004Z,4327.00
2023-06-03T05:49:01.971Z,3854.00
2023-06-03T05:50:01.941Z,3600.00
2023-06-03T05:51:01.942Z,3511.00
2023-06-03T05:52:01.962Z,3672.00
2023-06-03T05:53:01.947Z,3454.00
2023-06-03T05:54:01.921Z,3540.00
2023-06-03T05:55:01.939Z,3285.00
2023-06-03T05:56:01.980Z,3241.00
2023-06-03T05:57:01.916Z,3122.00
2023-06-03T05:58:01.882Z,3010.00
2023-06-03T05:59:01.894Z,3036.00
2023-06-03T06:00:01.867Z,3165.00
2023-06-03T06:01:01.899Z,2984.00
2023-06-03T06:02:01.865Z,3222.00
2023-06-03T06:03:01.963Z,3677.00
2023-06-03T06:04:01.888Z,3750.00
2023-06-03T06:05:01.865Z,3755.00
2023-06-03T06:06:01.832Z,3836.00
2023-06-03T06:07:01.842Z,3816.00
2023-06-03T06:08:01.853Z,3688.00
2023-06-03T06:09:01.810Z,3842.00
2023-06-03T06:10:01.820Z,3922.00
2023-06-03T06:11:01.873Z,3821.00
2023-06-03T06:12:01.769Z,3669.00
2023-06-03T06:13:01.770Z,3681.00
2023-06-03T06:14:01.776Z,3555.00
2023-06-03T06:15:01.724Z,3266.00
2023-06-03T06:16:01.931Z,3077.00
2023-06-03T06:17:01.760Z,3303.00
2023-06-03T06:18:01.790Z,3528.00
2023-06-03T06:19:01.759Z,3661.00
2023-06-03T06:20:01.738Z,3721.00
2023-06-03T06:21:01.731Z,3239.00
2023-06-03T06:22:01.726Z,2954.00
2023-06-03T06:23:01.784Z,3044.00
2023-06-03T06:24:01.785Z,3096.00
2023-06-03T06:25:01.696Z,3160.00
2023-06-03T06:26:01.703Z,3205.00
2023-06-03T06:27:01.664Z,3622.00
2023-06-03T06:28:01.669Z,3629.00
2023-06-03T06:29:01.653Z,3652.00
2023-06-03T06:30:01.683Z,3507.00
2023-06-03T06:31:01.699Z,3461.00
2023-06-03T06:32:01.705Z,3165.00
2023-06-03T06:33:01.695Z,2852.00
2023-06-03T06:34:01.656Z,2633.00
2023-06-03T06:35:01.614Z,2423.00
2023-06-03T06:36:01.599Z,2564.00
2023-06-03T06:37:01.615Z,2315.00
2023-06-03T06:38:01.690Z,1997.00
2023-06-03T06:39:01.684Z,1743.00
2023-06-03T06:40:01.793Z,1414.00
2023-06-03T06:41:01.769Z,1811.00
2023-06-03T06:42:01.844Z,2015.00
2023-06-03T06:43:01.820Z,1737.00
2023-06-03T06:44:01.897Z,1992.00
2023-06-03T06:45:01.963Z,1418.00
2023-06-03T06:46:01.951Z,1968.00
2023-06-03T06:47:01.972Z,1527.00
2023-06-03T06:48:02.082Z,1541.00
2023-06-03T06:49:02.020Z,1382.00
2023-06-03T06:50:02.109Z,1386.00
2023-06-03T06:51:02.110Z,1471.00
2023-06-03T06:52:02.110Z,1296.00
2023-06-03T06:53:02.160Z,1867.00
2023-06-03T06:54:02.170Z,2189.00
2023-06-03T06:55:02.257Z,1547.00
2023-06-03T06:56:02.259Z,1278.00
2023-06-03T06:57:02.244Z,751.00
2023-06-03T06:58:02.287Z,648.00
2023-06-03T06:59:02.310Z,600.00
2023-06-03T07:00:02.324Z,683.00
2023-06-03T07:01:02.438Z,575.00
2023-06-03T07:02:02.416Z,572.00
2023-06-03T07:03:02.578Z,624.00
2023-06-03T07:04:02.540Z,718.00
2023-06-03T07:05:02.516Z,915.00
2023-06-03T07:06:02.564Z,639.00
2023-06-03T07:07:02.579Z,744.00
2023-06-03T07:08:02.620Z,596.00
2023-06-03T07:09:02.673Z,600.00
2023-06-03T07:10:02.671Z,614.00
2023-06-03T07:11:04.960Z,620.00
2023-06-03T07:12:02.810Z,527.00
2023-06-03T07:13:02.804Z,639.00
2023-06-03T07:14:02.826Z,788.00
2023-06-03T07:15:02.860Z,595.00
2023-06-03T07:16:04.308Z,628.00
2023-06-03T07:17:03.084Z,624.00
2023-06-03T07:18:02.995Z,588.00
2023-06-03T07:19:02.872Z,585.00
2023-06-03T07:20:02.973Z,929.00
2023-06-03T07:21:03.014Z,1351.00
2023-06-03T07:22:03.022Z,1193.00
2023-06-03T07:23:03.067Z,639.00
2023-06-03T07:24:03.144Z,626.00
2023-06-03T07:25:03.121Z,601.00
2023-06-03T07:26:03.157Z,587.00
2023-06-03T07:27:03.234Z,636.00
2023-06-03T07:28:03.224Z,524.00
2023-06-03T07:29:03.253Z,592.00
2023-06-03T07:30:03.320Z,485.00
2023-06-03T07:31:04.820Z,578.00
2023-06-03T07:32:03.389Z,586.00
2023-06-03T07:33:03.395Z,639.00
2023-06-03T07:34:03.306Z,479.00
2023-06-03T07:35:03.321Z,501.00
2023-06-03T07:36:03.318Z,558.00
2023-06-03T07:37:03.284Z,847.00
2023-06-03T07:38:03.329Z,654.00
2023-06-03T07:39:03.308Z,547.00
2023-06-03T07:40:10.869Z,578.00
2023-06-03T07:41:03.549Z,581.00
2023-06-03T07:42:03.291Z,592.00
2023-06-03T07:43:03.295Z,626.00
2023-06-03T07:44:03.266Z,674.00
2023-06-03T07:45:03.275Z,773.00
2023-06-03T07:46:03.264Z,861.00
2023-06-03T07:47:03.228Z,878.00
2023-06-03T07:48:03.283Z,754.00
2023-06-03T07:49:03.264Z,554.00
2023-06-03T07:50:03.216Z,593.00
2023-06-03T07:51:03.368Z,667.00
2023-06-03T07:52:03.173Z,755.00
2023-06-03T07:53:03.255Z,662.00
2023-06-03T07:54:03.198Z,863.00
2023-06-03T07:55:03.191Z,1384.00
2023-06-03T07:56:03.222Z,1057.00
2023-06-03T07:57:03.210Z,1019.00
2023-06-03T07:58:03.169Z,905.00
2023-06-03T07:59:03.186Z,889.00
2023-06-03T08:00:03.160Z,730.00
2023-06-03T08:01:03.260Z,1092.00
2023-06-03T08:02:03.215Z,737.00
2023-06-03T08:03:03.395Z,693.00
2023-06-03T08:04:03.257Z,766.00
2023-06-03T08:05:03.266Z,852.00
2023-06-03T08:06:03.344Z,807.00
2023-06-03T08:07:03.614Z,758.00
2023-06-03T08:08:03.391Z,642.00
2023-06-03T08:09:03.422Z,802.00
2023-06-03T08:10:03.433Z,1331.00
2023-06-03T08:11:03.575Z,868.00
2023-06-03T08:12:04.424Z,799.00
2023-06-03T08:13:03.567Z,948.00
2023-06-03T08:14:03.566Z,813.00
2023-06-03T08:15:03.606Z,969.00
2023-06-03T08:16:03.694Z,955.00
2023-06-03T08:17:03.650Z,643.00
2023-06-03T08:18:03.760Z,606.00
2023-06-03T08:19:03.730Z,556.00
2023-06-03T08:20:03.751Z,574.00
2023-06-03T08:21:11.452Z,537.00
2023-06-03T08:22:03.803Z,537.00
2023-06-03T08:23:03.806Z,530.00
2023-06-03T08:24:04.038Z,489.00
2023-06-03T08:25:03.739Z,455.00
2023-06-03T08:26:03.736Z,454.00
2023-06-03T08:27:03.751Z,487.00
2023-06-03T08:28:03.780Z,634.00
2023-06-03T08:29:03.852Z,590.00
2023-06-03T08:30:03.758Z,635.00
2023-06-03T08:31:03.976Z,854.00
2023-06-03T08:32:03.933Z,581.00
2023-06-03T08:33:03.732Z,638.00
2023-06-03T08:34:03.702Z,573.00
2023-06-03T08:35:03.686Z,555.00
2023-06-03T08:36:03.691Z,768.00
2023-06-03T08:37:03.662Z,653.00
2023-06-03T08:38:03.708Z,607.00
2023-06-03T08:39:03.706Z,665.00
2023-06-03T08:40:03.641Z,572.00
2023-06-03T08:41:03.949Z,589.00
2023-06-03T08:42:03.674Z,632.00
2023-06-03T08:43:03.655Z,535.00
2023-06-03T08:44:03.634Z,541.00
2023-06-03T08:45:03.643Z,567.00
2023-06-03T08:46:03.718Z,772.00
2023-06-03T08:47:03.763Z,701.00
2023-06-03T08:48:03.826Z,643.00
2023-06-03T08:49:03.746Z,695.00
2023-06-03T08:50:03.808Z,661.00
2023-06-03T08:51:04.022Z,635.00
2023-06-03T08:52:03.892Z,617.00
2023-06-03T08:53:03.898Z,721.00
2023-06-03T08:54:03.902Z,662.00
2023-06-03T08:55:03.958Z,645.00
2023-06-03T08:56:04.007Z,637.00
2023-06-03T08:57:04.076Z,628.00
2023-06-03T08:58:04.069Z,647.00
2023-06-03T08:59:04.142Z,631.00
2023-06-03T09:00:04.888Z,584.00
2023-06-03T09:01:04.481Z,653.00
2023-06-03T09:02:04.251Z,652.00
2023-06-03T09:03:04.302Z,901.00
2023-06-03T09:04:04.278Z,777.00
2023-06-03T09:05:04.301Z,749.00
2023-06-03T09:06:04.251Z,902.00
2023-06-03T09:07:04.332Z,662.00
2023-06-03T09:08:04.368Z,898.00
2023-06-03T09:09:04.394Z,770.00
2023-06-03T09:10:04.434Z,584.00
2023-06-03T09:11:04.693Z,600.00
2023-06-03T09:12:04.520Z,553.00
2023-06-03T09:13:04.552Z,599.00
2023-06-03T09:14:04.530Z,652.00
2023-06-03T09:15:04.575Z,533.00
2023-06-03T09:16:04.614Z,750.00
2023-06-03T09:17:04.643Z,702.00
2023-06-03T09:18:04.728Z,606.00
2023-06-03T09:19:04.701Z,541.00
2023-06-03T09:20:04.752Z,529.00
2023-06-03T09:21:05.044Z,632.00
2023-06-03T09:22:04.823Z,565.00
2023-06-03T09:23:04.795Z,591.00
2023-06-03T09:24:04.889Z,528.00
2023-06-03T09:25:04.854Z,507.00
2023-06-03T09:26:04.900Z,524.00
2023-06-03T09:27:04.920Z,649.00
2023-06-03T09:28:04.950Z,519.00
2023-06-03T09:29:05.067Z,530.00
2023-06-03T09:30:05.081Z,634.00
2023-06-03T09:31:05.432Z,575.00
2023-06-03T09:32:05.138Z,606.00
2023-06-03T09:33:05.171Z,867.00
2023-06-03T09:34:05.177Z,629.00
2023-06-03T09:35:05.169Z,602.00
2023-06-03T09:36:05.222Z,674.00
2023-06-03T09:37:05.241Z,691.00
2023-06-03T09:38:05.272Z,699.00
2023-06-03T09:39:05.288Z,676.00
2023-06-03T09:40:05.281Z,631.00
2023-06-03T09:41:05.532Z,609.00
2023-06-03T09:42:05.428Z,797.00
2023-06-03T09:43:05.408Z,1314.00
2023-06-03T09:44:05.471Z,772.00
2023-06-03T09:45:05.500Z,606.00
2023-06-03T09:46:05.556Z,619.00
2023-06-03T09:47:05.624Z,778.00
2023-06-03T09:48:05.689Z,879.00
2023-06-03T09:49:05.606Z,687.00
2023-06-03T09:50:05.631Z,866.00
2023-06-03T09:51:05.826Z,605.00
2023-06-03T09:52:05.709Z,625.00
2023-06-03T09:53:05.745Z,638.00
2023-06-03T09:54:05.757Z,622.00
2023-06-03T09:55:05.776Z,710.00
2023-06-03T09:56:05.777Z,753.00
2023-06-03T09:57:05.805Z,841.00
2023-06-03T09:58:05.951Z,809.00
2023-06-03T09:59:05.876Z,860.00
2023-06-03T10:00:05.891Z,845.00
2023-06-03T10:01:06.232Z,1099.00
2023-06-03T10:02:06.029Z,753.00
2023-06-03T10:03:06.035Z,874.00
2023-06-03T10:04:06.033Z,761.00
2023-06-03T10:05:06.028Z,707.00
2023-06-03T10:06:06.104Z,931.00
2023-06-03T10:07:06.149Z,952.00
2023-06-03T10:08:06.170Z,658.00
2023-06-03T10:09:06.255Z,651.00
2023-06-03T10:10:06.237Z,717.00
2023-06-03T10:11:06.468Z,793.00
2023-06-03T10:12:06.273Z,652.00
2023-06-03T10:13:06.341Z,963.00
2023-06-03T10:14:06.353Z,955.00
2023-06-03T10:15:06.410Z,761.00
2023-06-03T10:16:06.407Z,670.00
2023-06-03T10:17:06.503Z,856.00
2023-06-03T10:18:06.886Z,800.00
2023-06-03T10:19:06.491Z,1015.00
2023-06-03T10:20:06.561Z,875.00
2023-06-03T10:21:06.693Z,827.00
2023-06-03T10:22:06.567Z,633.00
2023-06-03T10:23:06.630Z,650.00
2023-06-03T10:24:06.715Z,590.00
2023-06-03T10:25:06.677Z,800.00
2023-06-03T10:26:06.754Z,608.00
2023-06-03T10:27:06.819Z,589.00
2023-06-03T10:28:06.891Z,572.00
2023-06-03T10:29:06.876Z,641.00
2023-06-03T10:30:08.615Z,594.00
2023-06-03T10:31:07.451Z,525.00
2023-06-03T10:32:06.941Z,489.00
2023-06-03T10:33:06.991Z,522.00
2023-06-03T10:34:07.017Z,482.00
2023-06-03T10:35:07.053Z,509.00
2023-06-03T10:36:07.059Z,537.00
2023-06-03T10:37:07.081Z,469.00
2023-06-03T10:38:07.154Z,457.00
2023-06-03T10:39:07.136Z,482.00
2023-06-03T10:40:07.154Z,483.00
2023-06-03T10:41:07.391Z,538.00
2023-06-03T10:42:08.075Z,566.00
2023-06-03T10:43:07.248Z,564.00
2023-06-03T10:44:07.286Z,614.00
2023-06-03T10:45:07.347Z,676.00
2023-06-03T10:46:07.360Z,665.00
2023-06-03T10:47:07.364Z,654.00
2023-06-03T10:48:09.191Z,624.00
2023-06-03T10:49:07.413Z,596.00
2023-06-03T10:50:07.433Z,654.00
2023-06-03T10:51:07.631Z,612.00
2023-06-03T10:52:07.544Z,584.00
2023-06-03T10:53:07.618Z,559.00
2023-06-03T10:54:07.592Z,568.00
2023-06-03T10:55:07.694Z,640.00
2023-06-03T10:56:07.677Z,612.00
2023-06-03T10:57:07.850Z,618.00
2023-06-03T10:58:07.728Z,698.00
2023-06-03T10:59:07.744Z,642.00
2023-06-03T11:00:08.415Z,575.00
2023-06-03T11:01:08.020Z,709.00
2023-06-03T11:02:07.903Z,643.00
2023-06-03T11:03:07.908Z,696.00
2023-06-03T11:04:07.892Z,646.00
2023-06-03T11:05:07.946Z,630.00
2023-06-03T11:06:07.936Z,599.00
2023-06-03T11:07:08.009Z,614.00
2023-06-03T11:08:08.043Z,646.00
2023-06-03T11:09:08.020Z,642.00
2023-06-03T11:10:08.083Z,648.00
2023-06-03T11:11:08.085Z,579.00
2023-06-03T11:12:08.147Z,587.00
2023-06-03T11:13:08.151Z,612.00
2023-06-03T11:14:08.137Z,708.00
2023-06-03T11:15:08.157Z,665.00
2023-06-03T11:16:08.239Z,664.00
2023-06-03T11:17:08.225Z,622.00
2023-06-03T11:18:08.301Z,597.00
2023-06-03T11:19:09.913Z,609.00
2023-06-03T11:20:10.512Z,600.00
2023-06-03T11:21:08.440Z,627.00
2023-06-03T11:22:08.347Z,672.00
2023-06-03T11:23:08.420Z,666.00
2023-06-03T11:24:08.426Z,701.00
2023-06-03T11:25:08.476Z,633.00
2023-06-03T11:26:08.496Z,617.00
2023-06-03T11:27:08.548Z,631.00
2023-06-03T11:28:08.593Z,647.00
2023-06-03T11:29:08.611Z,626.00
2023-06-03T11:30:08.665Z,648.00
2023-06-03T11:31:09.120Z,750.00
2023-06-03T11:32:08.731Z,797.00
2023-06-03T11:33:08.804Z,930.00
2023-06-03T11:34:08.764Z,782.00
2023-06-03T11:35:08.810Z,666.00
2023-06-03T11:36:08.792Z,703.00
2023-06-03T11:37:08.841Z,689.00
2023-06-03T11:38:08.868Z,732.00
2023-06-03T11:39:08.926Z,840.00
2023-06-03T11:40:08.927Z,727.00
2023-06-03T11:41:08.919Z,668.00
2023-06-03T11:42:08.951Z,724.00
2023-06-03T11:43:09.005Z,727.00
2023-06-03T11:44:10.174Z,789.00
2023-06-03T11:45:09.015Z,747.00
2023-06-03T11:46:09.050Z,727.00
2023-06-03T11:47:09.014Z,670.00
2023-06-03T11:48:09.135Z,692.00
2023-06-03T11:49:09.000Z,711.00
2023-06-03T11:50:08.948Z,723.00
2023-06-03T11:51:09.145Z,676.00
2023-06-03T11:52:08.999Z,720.00
2023-06-03T11:53:08.978Z,618.00
2023-06-03T11:54:08.967Z,604.00
2023-06-03T11:55:08.945Z,606.00
2023-06-03T11:56:08.918Z,612.00
2023-06-03T11:57:09.009Z,639.00
2023-06-03T11:58:08.926Z,663.00
2023-06-03T11:59:08.926Z,731.00
2023-06-03T12:00:08.954Z,632.00
2023-06-03T12:01:08.923Z,614.00
2023-06-03T12:02:08.908Z,651.00
2023-06-03T12:03:08.953Z,590.00
2023-06-03T12:04:08.935Z,604.00
2023-06-03T12:05:08.908Z,618.00
2023-06-03T12:06:08.846Z,629.00
2023-06-03T12:07:08.888Z,628.00
2023-06-03T12:08:08.891Z,664.00
2023-06-03T12:09:08.850Z,701.00
2023-06-03T12:10:08.792Z,600.00
2023-06-03T12:11:08.814Z,601.00
2023-06-03T12:12:08.888Z,654.00
2023-06-03T12:13:08.861Z,719.00
2023-06-03T12:14:09.168Z,694.00
2023-06-03T12:15:08.767Z,591.00
2023-06-03T12:16:08.825Z,593.00